Time;durP1;ratioP1;P1;durP2;ratioP2;P2;SDS_P1;SDS_P2;PMS_P1;PMS_P2;Temp;Humidity;BMP_temperature;BMP_pressure;BME280_temperature;BME280_humidity;BME280_pressure;Samples;Min_cycle;Max_cycle;Signal;HPM_P1;HPM_P2
2023/07/12 00:00:47;;;;;;;10.57;2.72;;;19.00;22.60;;;;;;4982581;28;20049;-61
2023/07/12 00:03:13;;;;;;;7.40;2.40;;;18.90;19.50;;;;;;4984659;28;20391;-61
2023/07/12 00:05:39;;;;;;;8.55;2.55;;;19.20;26.50;;;;;;4979824;28;20358;-61
2023/07/12 00:08:08;;;;;;;6.93;2.50;;;19.60;27.80;;;;;;4987302;28;20038;-61
2023/07/12 00:10:36;;;;;;;9.82;3.15;;;;;;;;;;4977822;28;20114;-60
2023/07/12 00:13:02;;;;;;;8.80;2.92;;;18.60;2.50;;;;;;4987458;28;20038;-60
2023/07/12 00:15:34;;;;;;;6.20;2.40;;;19.60;32.30;;;;;;4976120;28;20468;-61
2023/07/12 00:18:00;;;;;;;7.28;2.60;;;18.80;16.30;;;;;;4982172;28;20045;-60
2023/07/12 00:20:30;;;;;;;8.43;2.30;;;18.70;36.10;;;;;;4977828;28;20484;-61
2023/07/12 00:22:56;;;;;;;6.55;2.20;;;18.70;37.40;;;;;;4982860;28;20026;-60
2023/07/12 00:25:24;;;;;;;10.32;3.10;;;;;;;;;;4979057;28;20055;-60
2023/07/12 00:27:49;;;;;;;6.45;2.38;;;19.00;1.00;;;;;;4976266;28;20039;-61
2023/07/12 00:30:15;;;;;;;8.70;2.45;;;18.80;1.00;;;;;;4977074;28;20034;-60
2023/07/12 00:32:41;;;;;;;7.70;2.40;;;18.90;1.00;;;;;;4982005;28;20043;-60
2023/07/12 00:35:08;;;;;;;6.78;2.65;;;18.60;1.00;;;;;;4980876;28;20100;-60
2023/07/12 00:37:33;;;;;;;6.68;2.35;;;18.70;1.00;;;;;;4977199;28;20042;-60
2023/07/12 00:39:59;;;;;;;6.68;2.13;;;18.80;1.00;;;;;;4977736;28;20126;-60
2023/07/12 00:42:36;;;;;;;7.55;2.30;;;18.40;1.00;;;;;;4985937;28;20444;-60
2023/07/12 00:45:04;;;;;;;6.30;2.55;;;18.80;1.00;;;;;;4979788;28;20038;-60
2023/07/12 00:47:32;;;;;;;6.50;2.45;;;18.30;1.00;;;;;;4978110;28;20060;-60
2023/07/12 00:49:58;;;;;;;6.30;2.28;;;18.70;1.00;;;;;;4977562;28;20049;-60
2023/07/12 00:52:24;;;;;;;6.45;2.10;;;18.70;1.00;;;;;;4977544;28;20034;-59
2023/07/12 00:54:52;;;;;;;7.85;2.33;;;18.10;1.00;;;;;;4978494;28;20114;-60
2023/07/12 00:57:18;;;;;;;6.30;2.17;;;19.40;1.00;;;;;;4978069;28;20397;-60
2023/07/12 00:59:44;;;;;;;7.38;2.60;;;19.30;1.00;;;;;;4982977;28;20042;-61
2023/07/12 01:02:12;;;;;;;6.72;2.35;;;18.30;1.00;;;;;;4974940;28;20464;-61
2023/07/12 01:04:45;;;;;;;7.75;2.58;;;;;;;;;;4984615;28;20098;-61
2023/07/12 01:07:12;;;;;;;9.90;2.72;;;;;;;;;;4979983;28;20127;-61
2023/07/12 01:09:38;;;;;;;7.72;2.70;;;19.00;1.00;;;;;;4975502;28;20424;-61
2023/07/12 01:12:04;;;;;;;6.80;2.63;;;18.50;1.00;;;;;;4975120;28;20041;-61
2023/07/12 01:14:30;;;;;;;10.10;2.78;;;18.80;1.00;;;;;;4985737;28;20042;-61
2023/07/12 01:17:00;;;;;;;10.05;2.53;;;;;;;;;;4982128;28;20176;-61
2023/07/12 01:19:26;;;;;;;9.43;2.60;;;;;;;;;;4977790;28;20078;-61
2023/07/12 01:21:54;;;;;;;11.32;2.80;;;19.10;1.00;;;;;;4982527;28;20088;-61
2023/07/12 01:24:22;;;;;;;11.98;3.92;;;;;;;;;;4974870;28;20046;-61
2023/07/12 01:26:49;;;;;;;9.60;3.40;;;;;;;;;;4978080;28;20121;-60
2023/07/12 01:29:15;;;;;;;9.38;2.72;;;;;;;;;;4984928;28;20034;-60
2023/07/12 01:31:42;;;;;;;9.60;2.80;;;18.50;15.60;;;;;;4978129;28;20084;-59
2023/07/12 01:34:08;;;;;;;9.07;3.00;;;18.50;1.00;;;;;;4978769;28;20045;-60
2023/07/12 01:36:34;;;;;;;7.72;2.80;;;18.60;1.00;;;;;;4983501;28;20211;-60
2023/07/12 01:39:02;;;;;;;12.70;3.22;;;;;;;;;;4977928;28;20038;-60
2023/07/12 01:41:28;;;;;;;9.95;3.40;;;;;;;;;;4983204;28;20049;-60
2023/07/12 01:43:54;;;;;;;10.95;3.10;;;;;;;;;;4979706;28;20044;-60
2023/07/12 01:46:21;;;;;;;12.25;3.05;;;;;;;;;;4983804;28;20057;-60
2023/07/12 01:48:47;;;;;;;11.45;3.72;;;19.10;45.10;;;;;;4972567;28;20042;-60
2023/07/12 01:51:14;;;;;;;12.55;3.92;;;;;;;;;;4984467;28;20073;-60
2023/07/12 01:53:40;;;;;;;11.32;3.65;;;18.40;99.90;;;;;;4972774;28;20129;-60
2023/07/12 01:56:06;;;;;;;15.30;4.57;;;18.10;99.60;;;;;;4974831;28;20092;-60
2023/07/12 01:58:32;;;;;;;9.38;3.50;;;18.30;99.90;;;;;;4982145;28;20034;-60
2023/07/12 02:00:59;;;;;;;12.20;3.47;;;;;;;;;;4981316;28;20456;-60
2023/07/12 02:03:25;;;;;;;23.20;4.30;;;17.80;99.90;;;;;;4985070;28;20452;-61
2023/07/12 02:05:51;;;;;;;10.30;4.00;;;18.00;99.90;;;;;;4980770;28;20484;-61
2023/07/12 02:08:17;;;;;;;12.30;4.45;;;18.20;99.90;;;;;;4985262;28;20036;-61
2023/07/12 02:10:43;;;;;;;13.40;4.03;;;18.30;99.90;;;;;;4970620;28;20066;-61
2023/07/12 02:13:10;;;;;;;13.93;4.28;;;;;;;;;;4979288;28;20042;-61
2023/07/12 02:15:36;;;;;;;13.02;3.85;;;18.20;99.90;;;;;;4970090;28;20129;-60
2023/07/12 02:18:02;;;;;;;10.07;4.00;;;;;;;;;;4976832;28;20039;-61
2023/07/12 02:20:28;;;;;;;12.65;4.40;;;18.20;99.90;;;;;;4977519;28;20101;-61
2023/07/12 02:22:54;;;;;;;14.38;4.28;;;18.20;99.90;;;;;;4976462;28;20294;-61
2023/07/12 02:25:20;;;;;;;12.18;4.63;;;18.20;99.90;;;;;;4979671;28;20056;-61
2023/07/12 02:27:47;;;;;;;12.65;3.92;;;18.10;99.90;;;;;;4980407;28;20110;-61
2023/07/12 02:30:18;;;;;;;14.02;4.68;;;;;;;;;;4978227;28;20062;-61
2023/07/12 02:32:45;;;;;;;15.00;3.88;;;;;;;;;;4979207;28;20045;-61
2023/07/12 02:35:10;;;;;;;14.02;4.50;;;18.20;99.90;;;;;;4977059;28;20047;-61
2023/07/12 02:37:36;;;;;;;11.35;4.07;;;18.40;99.90;;;;;;4974118;28;20034;-61
2023/07/12 02:40:07;;;;;;;12.63;4.30;;;18.00;99.90;;;;;;4982577;28;20618;-61
2023/07/12 02:42:33;;;;;;;13.55;4.15;;;;;;;;;;4978234;28;20043;-61
2023/07/12 02:44:59;;;;;;;11.52;3.90;;;18.10;99.90;;;;;;4980751;28;20185;-61
2023/07/12 02:47:25;;;;;;;13.57;4.25;;;18.10;99.90;;;;;;4983218;28;20511;-61
2023/07/12 02:49:50;;;;;;;15.02;5.18;;;18.30;99.90;;;;;;4978651;28;20034;-61
2023/07/12 02:52:16;;;;;;;17.25;6.40;;;18.00;99.90;;;;;;4979511;28;20420;-61
2023/07/12 02:54:42;;;;;;;14.80;4.45;;;18.10;99.90;;;;;;4979839;28;20072;-61
2023/07/12 02:57:09;;;;;;;12.20;4.70;;;;;;;;;;4983309;28;20039;-61
2023/07/12 02:59:36;;;;;;;13.68;4.43;;;;;;;;;;4981555;28;20053;-61
2023/07/12 03:02:03;;;;;;;16.50;5.00;;;18.30;99.90;;;;;;4984212;28;20384;-61
2023/07/12 03:04:29;;;;;;;14.60;4.43;;;18.00;99.90;;;;;;4982587;28;20106;-61
2023/07/12 03:06:55;;;;;;;16.17;5.03;;;17.90;99.90;;;;;;4983823;28;20043;-61
2023/07/12 03:09:21;;;;;;;13.13;4.32;;;18.40;99.90;;;;;;4978403;28;20104;-61
2023/07/12 03:11:48;;;;;;;11.25;4.50;;;;;;;;;;4975799;28;20117;-61
2023/07/12 03:14:18;;;;;;;12.48;4.72;;;;;;;;;;4977950;28;20031;-60
2023/07/12 03:16:45;;;;;;;14.77;4.78;;;;;;;;;;4983466;28;20042;-60
2023/07/12 03:19:11;;;;;;;14.10;4.32;;;18.70;99.90;;;;;;4980276;28;20185;-60
2023/07/12 03:21:36;;;;;;;14.02;4.97;;;18.20;1.00;;;;;;4983565;28;20089;-60
2023/07/12 03:24:02;;;;;;;15.05;4.68;;;18.20;1.00;;;;;;4973074;28;20650;-61
2023/07/12 03:26:28;;;;;;;15.55;4.30;;;18.30;1.00;;;;;;4978144;28;20109;-61
2023/07/12 03:28:55;;;;;;;15.57;4.63;;;18.10;99.90;;;;;;4984887;28;20038;-61
2023/07/12 03:31:22;;;;;;;14.55;5.57;;;;;;;;;;4986407;28;20069;-61
2023/07/12 03:33:48;;;;;;;15.15;5.07;;;;;;;;;;4972902;28;20038;-61
2023/07/12 03:36:15;;;;;;;17.25;5.25;;;17.90;1.00;;;;;;4972917;28;20101;-61
2023/07/12 03:38:41;;;;;;;16.33;4.55;;;;;;;;;;4975116;28;20496;-61
2023/07/12 03:41:09;;;;;;;15.07;4.72;;;;;;;;;;4977735;28;20385;-61
2023/07/12 03:43:35;;;;;;;14.40;4.22;;;;;;;;;;4977532;28;20038;-61
2023/07/12 03:46:02;;;;;;;13.88;4.32;;;;;;;;;;4980772;28;20074;-60
2023/07/12 03:48:28;;;;;;;15.88;4.50;;;;;;;;;;4979460;28;20038;-60
2023/07/12 03:50:57;;;;;;;14.45;5.68;;;;;;;;;;4982730;28;20045;-60
2023/07/12 03:53:24;;;;;;;17.73;5.03;;;;;;;;;;4977698;28;20039;-60
2023/07/12 03:55:50;;;;;;;13.60;5.03;;;18.00;99.90;;;;;;4975121;28;20058;-60
2023/07/12 03:58:19;;;;;;;13.07;4.93;;;18.40;99.90;;;;;;4982828;28;20409;-59
2023/07/12 04:00:47;;;;;;;16.10;5.60;;;18.20;1.00;;;;;;4979393;28;20755;-59
2023/07/12 04:03:13;;;;;;;14.27;4.88;;;18.30;99.90;;;;;;4972710;28;20121;-59
2023/07/12 04:05:40;;;;;;;15.02;4.32;;;;;;;;;;4977749;28;20042;-59
2023/07/12 04:08:07;;;;;;;17.85;5.82;;;;;;;;;;4978433;28;20042;-59
2023/07/12 04:10:32;;;;;;;20.27;5.25;;;18.30;99.90;;;;;;4985603;28;20038;-60
2023/07/12 04:12:58;;;;;;;12.38;4.35;;;18.40;99.90;;;;;;4977648;28;20038;-60
2023/07/12 04:15:24;;;;;;;15.57;4.78;;;18.40;99.90;;;;;;4984991;28;20046;-60
2023/07/12 04:17:50;;;;;;;21.13;6.32;;;18.30;99.90;;;;;;4982429;28;20046;-60
2023/07/12 04:20:16;;;;;;;17.27;5.47;;;18.20;99.90;;;;;;4976028;28;20035;-60
2023/07/12 04:22:41;;;;;;;16.92;5.07;;;18.30;99.90;;;;;;4978295;28;20042;-60
2023/07/12 04:25:08;;;;;;;17.13;5.15;;;;;;;;;;4976642;28;20035;-60
2023/07/12 04:27:37;;;;;;;16.38;5.47;;;;;;;;;;4980894;28;20081;-60
2023/07/12 04:30:03;;;;;;;13.57;4.82;;;;;;;;;;4979148;28;20049;-59
2023/07/12 04:32:29;;;;;;;14.68;4.82;;;18.40;99.90;;;;;;4975529;28;20144;-60
2023/07/12 04:34:55;;;;;;;16.50;6.00;;;;;;;;;;4982258;28;20042;-60
2023/07/12 04:37:21;;;;;;;17.45;5.50;;;;;;;;;;4986468;28;20049;-60
2023/07/12 04:39:47;;;;;;;12.68;5.18;;;18.40;99.90;;;;;;4987220;28;20057;-60
2023/07/12 04:42:13;;;;;;;17.15;5.90;;;;;;;;;;4979133;28;20503;-60
2023/07/12 04:44:39;;;;;;;16.20;4.75;;;;;;;;;;4986275;28;20104;-61
2023/07/12 04:47:09;;;;;;;18.92;5.32;;;;;;;;;;4978399;28;20423;-61
2023/07/12 04:49:35;;;;;;;20.52;5.47;;;;;;;;;;4988962;28;20085;-61
2023/07/12 04:52:01;;;;;;;17.50;5.10;;;18.50;99.90;;;;;;4984492;28;20045;-61
2023/07/12 04:54:26;;;;;;;17.50;6.78;;;18.30;99.90;;;;;;4982623;28;20038;-61
2023/07/12 04:56:52;;;;;;;18.30;6.22;;;18.00;99.90;;;;;;4989574;28;20050;-60
2023/07/12 04:59:19;;;;;;;14.50;5.65;;;;;;;;;;4983467;28;20066;-61
2023/07/12 05:01:45;;;;;;;17.30;5.13;;;;;;;;;;4980816;28;20114;-60
2023/07/12 05:04:13;;;;;;;20.40;6.57;;;;;;;;;;4976795;28;20042;-61
2023/07/12 05:06:39;;;;;;;17.15;6.18;;;18.30;99.90;;;;;;4976938;28;20064;-61
2023/07/12 05:09:05;;;;;;;24.25;6.22;;;18.40;99.90;;;;;;4973001;28;20039;-61
2023/07/12 05:11:31;;;;;;;13.25;5.20;;;18.40;99.90;;;;;;4983455;28;20034;-61
2023/07/12 05:13:57;;;;;;;14.65;4.80;;;18.10;99.90;;;;;;4984010;28;20035;-61
2023/07/12 05:16:23;;;;;;;19.08;5.95;;;;;;;;;;4977309;28;20046;-62
2023/07/12 05:18:49;;;;;;;22.55;5.82;;;18.50;99.90;;;;;;4978836;28;20740;-61
2023/07/12 05:21:14;;;;;;;20.70;5.93;;;18.60;99.90;;;;;;4973991;28;20038;-61
2023/07/12 05:23:41;;;;;;;20.98;6.10;;;18.60;99.90;;;;;;4984468;28;20042;-61
2023/07/12 05:26:08;;;;;;;15.30;5.00;;;;;;;;;;4970549;28;20437;-61
2023/07/12 05:28:34;;;;;;;15.60;4.65;;;;;;;;;;4978233;28;20061;-61
2023/07/12 05:31:09;;;;;;;15.50;4.63;;;19.50;99.90;;;;;;4970406;28;20066;-61
2023/07/12 05:33:34;;;;;;;;;;;;;;;;;;4978439;28;20213;-61
2023/07/12 05:36:01;;;;;;;16.33;5.60;;;18.70;99.90;;;;;;4979677;28;19918;-61
2023/07/12 05:38:28;;;;;;;16.33;6.10;;;;;;;;;;4967112;28;20443;-61
2023/07/12 05:40:57;;;;;;;15.02;5.03;;;19.70;99.90;;;;;;4968212;28;20054;-61
2023/07/12 05:43:23;;;;;;;17.15;5.97;;;19.10;99.90;;;;;;4967855;28;20161;-61
2023/07/12 05:45:50;;;;;;;21.90;5.80;;;18.70;99.90;;;;;;4980190;28;20042;-61
2023/07/12 05:48:16;;;;;;;11.93;5.03;;;18.90;99.90;;;;;;4976512;28;20466;-61
2023/07/12 05:50:42;;;;;;;19.30;5.43;;;19.00;99.90;;;;;;4971859;28;20125;-61
2023/07/12 05:53:08;;;;;;;16.92;5.10;;;19.00;99.90;;;;;;4977052;28;20096;-61
2023/07/12 05:55:34;;;;;;;17.38;5.03;;;18.50;99.90;;;;;;4975277;28;20055;-61
2023/07/12 05:58:00;;;;;;;20.23;5.50;;;18.90;99.90;;;;;;4980574;28;20550;-61
2023/07/12 06:00:26;;;;;;;20.83;5.13;;;19.10;99.90;;;;;;4987311;28;20500;-61
2023/07/12 06:02:52;;;;;;;14.65;5.03;;;19.10;99.90;;;;;;4967789;28;20519;-61
2023/07/12 06:05:18;;;;;;;13.40;6.18;;;18.90;99.90;;;;;;4969792;28;20145;-61
2023/07/12 06:07:45;;;;;;;11.13;4.50;;;;;;;;;;4971846;28;20050;-61
2023/07/12 06:10:11;;;;;;;19.10;6.80;;;19.00;99.90;;;;;;4973827;28;20046;-61
2023/07/12 06:12:38;;;;;;;31.25;6.57;;;18.00;99.90;;;;;;4973932;28;20121;-57
2023/07/12 06:15:04;;;;;;;26.25;7.60;;;17.30;99.90;;;;;;4973355;28;20027;-66
2023/07/12 06:17:30;;;;;;;15.05;6.00;;;;;;;;;;4973526;28;20054;-64
2023/07/12 06:19:56;;;;;;;21.95;7.85;;;16.00;99.90;;;;;;4974913;28;20264;-64
2023/07/12 06:22:22;;;;;;;29.55;7.60;;;16.70;99.90;;;;;;4976467;28;20045;-64
2023/07/12 06:24:47;;;;;;;32.00;9.65;;;16.50;99.90;;;;;;4980208;28;20039;-63
2023/07/12 06:27:13;;;;;;;21.65;7.15;;;16.60;99.90;;;;;;4975184;28;20408;-64
2023/07/12 06:29:40;;;;;;;19.40;7.03;;;;;;;;;;4974158;28;20425;-63
2023/07/12 06:32:06;;;;;;;22.58;7.65;;;16.30;99.90;;;;;;4974378;28;20457;-63
2023/07/12 06:34:32;;;;;;;23.85;10.50;;;16.50;99.90;;;;;;4983483;28;20172;-63
2023/07/12 06:36:58;;;;;;;20.48;7.60;;;;;;;;;;4975477;28;20063;-63
2023/07/12 06:39:23;;;;;;;28.25;9.80;;;16.60;99.90;;;;;;4982216;28;20053;-66
2023/07/12 06:41:50;;;;;;;19.20;8.32;;;;;;;;;;5000590;28;20039;-66
2023/07/12 06:44:16;;;;;;;27.52;8.43;;;16.50;99.90;;;;;;4972734;28;20085;-64
2023/07/12 06:46:42;;;;;;;29.13;10.02;;;;;;;;;;4984762;28;20038;-65
2023/07/12 06:49:07;;;;;;;18.85;8.20;;;16.90;99.90;;;;;;4975034;28;20746;-67
2023/07/12 06:51:33;;;;;;;14.25;6.68;;;16.90;1.00;;;;;;4982631;28;20050;-67
2023/07/12 06:53:59;;;;;;;11.98;5.43;;;17.20;99.90;;;;;;4982736;28;20125;-67
2023/07/12 06:56:24;;;;;;;10.90;4.53;;;16.80;99.90;;;;;;4981980;28;20050;-67
2023/07/12 06:58:50;;;;;;;11.02;3.45;;;;;;;;;;4972778;28;20042;-67
2023/07/12 07:01:16;;;;;;;10.30;3.33;;;16.10;99.90;;;;;;4986100;28;20061;-67
2023/07/12 07:03:42;;;;;;;7.55;2.58;;;16.00;88.10;;;;;;4989608;28;20045;-66
2023/07/12 07:06:08;;;;;;;14.85;3.88;;;;;;;;;;4990854;28;20042;-66
2023/07/12 07:08:33;;;;;;;11.07;3.63;;;15.60;99.90;;;;;;4990979;28;20039;-64
2023/07/12 07:11:00;;;;;;;11.35;4.20;;;15.80;99.90;;;;;;4990771;28;20038;-64
2023/07/12 07:13:26;;;;;;;12.35;4.90;;;;;;;;;;4991049;28;20369;-66
2023/07/12 07:15:53;;;;;;;11.02;4.38;;;;;;;;;;4992329;28;20042;-68
2023/07/12 07:18:19;;;;;;;13.15;4.25;;;15.70;99.90;;;;;;4983498;28;20377;-66
2023/07/12 07:20:45;;;;;;;12.40;4.97;;;15.80;99.90;;;;;;4992048;28;20046;-65
2023/07/12 07:23:11;;;;;;;14.18;5.10;;;;;;;;;;4988010;28;20393;-66
2023/07/12 07:25:40;;;;;;;13.75;4.85;;;;;;;;;;4979962;28;20046;-67
2023/07/12 07:28:06;;;;;;;12.55;5.13;;;;;;;;;;4980252;28;20031;-67
2023/07/12 07:30:32;;;;;;;18.17;5.97;;;16.00;99.90;;;;;;4975324;28;20117;-68
2023/07/12 07:32:58;;;;;;;12.55;5.45;;;16.00;99.90;;;;;;4979334;28;20488;-67
2023/07/12 07:35:25;;;;;;;14.93;6.53;;;;;;;;;;4977137;28;20053;-68
2023/07/12 07:37:51;;;;;;;19.95;6.15;;;;;;;;;;4969523;28;20043;-67
2023/07/12 07:40:17;;;;;;;19.60;6.28;;;16.70;99.90;;;;;;4976130;28;20035;-68
2023/07/12 07:42:43;;;;;;;14.98;5.30;;;16.50;99.90;;;;;;4978782;28;20521;-67
2023/07/12 07:45:10;;;;;;;11.98;5.07;;;16.70;99.90;;;;;;4980715;28;20202;-67
2023/07/12 07:47:36;;;;;;;14.65;5.13;;;16.90;99.90;;;;;;4968679;28;20102;-67
2023/07/12 07:50:03;;;;;;;12.40;5.22;;;;;;;;;;4972942;28;20834;-67
2023/07/12 07:52:29;;;;;;;19.00;5.90;;;16.90;99.90;;;;;;4978775;28;20085;-67
2023/07/12 07:54:54;;;;;;;12.38;5.15;;;16.90;99.90;;;;;;4984895;28;20082;-67
2023/07/12 07:57:22;;;;;;;9.73;5.03;;;17.00;98.90;;;;;;4985071;28;20042;-66
2023/07/12 07:59:48;;;;;;;10.23;4.13;;;16.90;77.60;;;;;;4978272;28;20089;-66
2023/07/12 08:02:13;;;;;;;9.60;3.92;;;16.90;99.90;;;;;;4977671;28;20038;-67
2023/07/12 08:04:39;;;;;;;11.90;4.32;;;16.40;99.90;;;;;;4974124;28;20039;-66
2023/07/12 08:07:06;;;;;;;9.43;3.72;;;17.00;1.00;;;;;;4977689;28;20407;-66
2023/07/12 08:09:35;;;;;;;14.70;4.72;;;17.20;1.00;;;;;;4981373;28;20476;-67
2023/07/12 08:12:01;;;;;;;12.15;4.40;;;;;;;;;;4984719;28;20451;-66
2023/07/12 08:14:26;;;;;;;10.63;4.40;;;17.40;37.90;;;;;;4981076;28;20072;-66
2023/07/12 08:16:52;;;;;;;13.43;5.22;;;17.00;16.10;;;;;;4981161;28;20070;-66
2023/07/12 08:19:18;;;;;;;16.60;5.15;;;17.00;1.00;;;;;;4975709;28;20064;-66
2023/07/12 08:21:44;;;;;;;11.00;3.97;;;16.90;1.00;;;;;;4982805;28;20121;-66
2023/07/12 08:24:10;;;;;;;14.38;4.68;;;17.10;1.00;;;;;;4982273;28;20070;-66
2023/07/12 08:26:36;;;;;;;11.77;4.57;;;17.40;1.00;;;;;;4973373;28;20062;-66
2023/07/12 08:29:02;;;;;;;11.30;4.47;;;16.40;1.00;;;;;;4976115;28;20042;-66
2023/07/12 08:31:28;;;;;;;14.43;4.55;;;17.00;1.00;;;;;;4969961;28;20042;-66
2023/07/12 08:33:55;;;;;;;12.55;4.95;;;17.20;99.90;;;;;;4981714;28;20443;-66
2023/07/12 08:36:21;;;;;;;17.88;5.00;;;17.10;99.90;;;;;;4978022;28;20445;-66
2023/07/12 08:38:47;;;;;;;9.05;4.35;;;17.30;99.90;;;;;;4974326;28;20118;-65
2023/07/12 08:41:17;;;;;;;8.35;3.75;;;;;;;;;;4978059;28;20126;-65
2023/07/12 08:43:43;;;;;;;10.35;4.15;;;;;;;;;;4980295;28;20117;-65
2023/07/12 08:46:16;;;;;;;10.07;4.18;;;16.90;99.90;;;;;;4971484;28;20038;-66
2023/07/12 08:48:43;;;;;;;12.48;4.18;;;17.40;99.90;;;;;;4973671;28;20053;-66
2023/07/12 08:51:19;;;;;;;10.45;3.88;;;17.20;99.90;;;;;;4975326;28;20034;-66
2023/07/12 08:53:45;;;;;;;9.10;3.83;;;;;;;;;;4970907;28;20043;-66
2023/07/12 08:56:13;;;;;;;11.02;3.95;;;17.10;99.90;;;;;;4976355;28;20093;-66
2023/07/12 08:58:44;;;;;;;6.50;3.17;;;;;;;;;;4974389;28;20038;-66
2023/07/12 09:01:15;;;;;;;7.43;3.67;;;17.10;99.90;;;;;;4974952;28;20162;-65
2023/07/12 09:03:41;;;;;;;10.15;3.40;;;17.40;99.90;;;;;;4978077;28;20046;-65
2023/07/12 09:06:14;;;;;;;9.48;3.80;;;;;;;;;;4982805;28;20042;-65
2023/07/12 09:08:48;;;;;;;9.30;4.18;;;17.40;99.90;;;;;;4975203;28;20157;-65
2023/07/12 09:11:14;;;;;;;;;;;;;;;;;;4973720;28;20042;-66
2023/07/12 09:13:40;;;;;;;10.63;4.35;;;17.60;99.90;;;;;;4978360;28;20385;-65
2023/07/12 09:16:23;;;;;;;9.93;4.22;;;;;;;;;;4988315;28;20054;-65
2023/07/12 09:18:53;;;;;;;12.60;4.60;;;17.40;99.90;;;;;;4982070;28;20034;-65
2023/07/12 09:21:38;;;;;;;9.88;4.82;;;17.60;99.90;;;;;;4979131;28;20245;-65
2023/07/12 09:24:13;;;;;;;7.68;3.40;;;17.70;98.80;;;;;;4983463;28;20049;-65
2023/07/12 09:26:39;;;;;;;9.85;4.30;;;18.20;68.40;;;;;;4977829;28;20030;-65
2023/07/12 09:29:07;;;;;;;8.38;3.53;;;17.50;19.40;;;;;;4978397;28;20473;-65
2023/07/12 09:31:35;;;;;;;10.55;3.28;;;17.70;1.00;;;;;;4983213;28;20043;-65
2023/07/12 09:34:05;;;;;;;9.00;3.42;;;18.00;1.00;;;;;;4974258;28;20042;-64
2023/07/12 09:36:35;;;;;;;7.93;2.92;;;17.80;1.00;;;;;;4983422;28;20335;-64
2023/07/12 09:39:04;;;;;;;6.60;3.10;;;18.00;75.70;;;;;;4986214;28;20062;-65
2023/07/12 09:41:30;;;;;;;7.57;3.25;;;17.90;1.00;;;;;;4982617;28;20038;-64
2023/07/12 09:43:58;;;;;;;7.65;3.30;;;18.20;99.90;;;;;;4980465;28;20504;-64
2023/07/12 09:46:37;;;;;;;5.68;2.78;;;17.80;1.00;;;;;;4982147;28;20043;-64
2023/07/12 09:49:13;;;;;;;7.45;3.10;;;17.80;1.00;;;;;;4984389;28;20137;-64
2023/07/12 09:51:51;;;;;;;8.70;3.25;;;18.30;1.00;;;;;;4980978;28;20050;-64
2023/07/12 09:54:34;;;;;;;7.13;3.20;;;17.90;1.00;;;;;;4983080;28;20375;-64
2023/07/12 09:57:09;;;;;;;8.27;3.00;;;;;;;;;;4986032;28;20403;-64
2023/07/12 09:59:57;;;;;;;6.43;2.30;;;18.60;99.90;;;;;;4969794;28;20050;-64
2023/07/12 10:02:41;;;;;;;8.82;2.47;;;18.30;99.90;;;;;;4982568;28;20439;-64
2023/07/12 10:05:18;;;;;;;6.38;2.35;;;17.90;99.90;;;;;;4977813;28;20468;-64
2023/07/12 10:08:00;;;;;;;7.57;2.28;;;18.60;99.90;;;;;;4978273;28;20070;-64
2023/07/12 10:10:34;;;;;;;7.95;2.38;;;18.60;99.90;;;;;;4981854;28;20126;-63
2023/07/12 10:13:14;;;;;;;5.38;1.90;;;19.20;99.90;;;;;;4983227;28;20416;-63
2023/07/12 10:15:40;;;;;;;5.60;2.22;;;19.20;99.90;;;;;;4981579;28;20108;-63
2023/07/12 10:18:09;;;;;;;6.30;2.10;;;;;;;;;;4981351;28;20089;-62
2023/07/12 10:20:35;;;;;;;7.63;2.10;;;18.40;99.90;;;;;;4987626;28;20047;-63
2023/07/12 10:23:03;;;;;;;6.88;1.85;;;18.40;99.90;;;;;;4977585;28;20101;-63
2023/07/12 10:25:33;;;;;;;6.28;2.17;;;19.30;99.90;;;;;;4985544;28;20089;-63
2023/07/12 10:28:13;;;;;;;7.25;2.70;;;18.20;99.90;;;;;;4976722;28;20038;-62
2023/07/12 10:30:40;;;;;;;9.18;2.38;;;18.80;99.90;;;;;;4981863;28;20054;-62
2023/07/12 10:33:13;;;;;;;6.97;2.25;;;19.50;99.90;;;;;;4981574;28;20034;-62
2023/07/12 10:35:45;;;;;;;6.32;2.20;;;19.70;99.90;;;;;;4974866;28;20034;-63
2023/07/12 10:38:17;;;;;;;4.93;1.70;;;19.10;99.90;;;;;;4978845;28;20070;-62
2023/07/12 10:41:02;;;;;;;5.35;2.33;;;19.40;99.90;;;;;;4976649;28;20034;-62
2023/07/12 10:43:33;;;;;;;7.85;2.38;;;18.70;99.90;;;;;;4982295;28;20101;-62
2023/07/12 10:46:04;;;;;;;5.72;2.00;;;;;;;;;;4976168;28;20042;-62
2023/07/12 10:48:30;;;;;;;6.95;2.22;;;18.90;99.90;;;;;;4979360;28;20209;-62
2023/07/12 10:51:26;;;;;;;9.23;2.33;;;18.20;99.90;;;;;;4975537;28;20041;-62
2023/07/12 10:53:54;;;;;;;11.30;2.80;;;19.30;99.90;;;;;;4974395;28;20047;-61
2023/07/12 10:56:26;;;;;;;10.50;2.20;;;18.90;97.50;;;;;;4976230;28;20049;-62
2023/07/12 10:58:54;;;;;;;7.60;2.35;;;19.40;99.90;;;;;;4983125;28;20053;-62
2023/07/12 11:01:42;;;;;;;6.53;2.50;;;19.10;99.90;;;;;;4973564;28;20043;-62
2023/07/12 11:04:10;;;;;;;5.22;1.80;;;19.60;99.90;;;;;;4976981;28;20034;-62
2023/07/12 11:06:59;;;;;;;7.57;2.17;;;19.30;99.90;;;;;;4975520;28;20399;-62
2023/07/12 11:09:45;;;;;;;6.78;2.25;;;18.70;99.90;;;;;;4983390;28;20038;-61
2023/07/12 11:12:31;;;;;;;10.77;2.47;;;19.60;97.40;;;;;;4980891;28;20042;-61
2023/07/12 11:15:23;;;;;;;7.30;2.00;;;19.60;24.50;;;;;;4986439;28;20511;-61
2023/07/12 11:18:07;;;;;;;5.25;1.50;;;19.70;68.00;;;;;;4979452;28;20054;-61
2023/07/12 11:20:54;;;;;;;6.22;2.70;;;19.70;1.00;;;;;;4982498;28;20108;-62
2023/07/12 11:23:48;;;;;;;5.65;1.77;;;20.10;99.90;;;;;;4982663;28;20031;-61
2023/07/12 11:26:34;;;;;;;6.13;1.73;;;19.50;1.00;;;;;;4980790;28;20074;-62
2023/07/12 11:29:22;;;;;;;9.13;1.90;;;20.20;11.60;;;;;;4960442;28;20042;-61
2023/07/12 11:31:50;;;;;;;6.55;1.60;;;;;;;;;;4939124;28;20062;-61
2023/07/12 11:34:19;;;;;;;5.35;1.67;;;;;;;;;;4958611;28;20448;-61
2023/07/12 11:36:51;;;;;;;7.55;2.15;;;20.10;1.00;;;;;;4957695;28;20192;-61
2023/07/12 11:39:19;;;;;;;4.68;1.73;;;;;;;;;;4957756;28;20106;-61
2023/07/12 11:41:52;;;;;;;4.63;1.52;;;;;;;;;;4956355;28;20523;-60
2023/07/12 11:44:18;;;;;;;5.00;1.50;;;19.60;1.00;;;;;;4957014;28;20046;-61
2023/07/12 11:46:44;;;;;;;4.57;1.58;;;20.00;99.90;;;;;;4959460;28;20039;-61
2023/07/12 11:49:15;;;;;;;6.93;2.03;;;;;;;;;;4959217;28;20089;-60
2023/07/12 11:51:42;;;;;;;3.70;1.08;;;;;;;;;;4958621;28;20126;-61
2023/07/12 11:54:21;;;;;;;6.38;1.55;;;19.50;99.90;;;;;;4958543;28;22032;-61
2023/07/12 11:56:50;;;;;;;4.68;1.95;;;20.10;99.90;;;;;;4956226;28;20398;-60
2023/07/12 11:59:21;;;;;;;3.70;1.08;;;19.90;99.90;;;;;;4956571;28;20059;-60
2023/07/12 12:01:48;;;;;;;6.13;2.03;;;20.30;99.90;;;;;;4955378;28;20042;-61
2023/07/12 12:04:22;;;;;;;8.07;1.70;;;20.20;99.90;;;;;;4958077;28;20039;-60
2023/07/12 12:06:59;;;;;;;4.10;1.25;;;20.50;99.90;;;;;;4957040;28;20101;-61
2023/07/12 12:09:36;;;;;;;6.07;2.65;;;;;;;;;;4955907;28;20523;-60
2023/07/12 12:12:06;;;;;;;4.35;1.38;;;20.00;38.10;;;;;;4957992;28;20053;-60
2023/07/12 12:14:41;;;;;;;5.93;1.40;;;20.00;1.00;;;;;;4957113;28;20054;-60
2023/07/12 12:17:12;;;;;;;5.47;1.60;;;;;;;;;;4956929;28;21550;-60
2023/07/12 12:19:38;;;;;;;5.15;1.60;;;20.10;97.30;;;;;;4955709;28;20042;-60
2023/07/12 12:22:16;;;;;;;7.70;1.58;;;20.60;1.00;;;;;;4954765;28;20066;-60
2023/07/12 12:24:47;;;;;;;5.05;1.30;;;21.40;1.00;;;;;;4959907;28;20531;-60
2023/07/12 12:27:36;;;;;;;4.72;1.30;;;20.70;1.00;;;;;;4967600;28;20381;-60
2023/07/12 12:30:19;;;;;;;7.30;1.88;;;;;;;;;;4965468;28;20101;-61
2023/07/12 12:33:05;;;;;;;5.57;1.30;;;20.70;1.00;;;;;;4964352;28;20066;-60
2023/07/12 12:35:45;;;;;;;5.95;1.35;;;21.00;1.00;;;;;;4975093;28;20049;-61
2023/07/12 12:38:22;;;;;;;6.55;1.73;;;20.90;1.00;;;;;;4987547;28;20149;-61
2023/07/12 12:40:59;;;;;;;6.40;1.42;;;20.30;1.00;;;;;;4987468;28;20078;-60
2023/07/12 12:43:25;;;;;;;4.93;1.63;;;20.90;99.90;;;;;;4984141;28;20038;-60
2023/07/12 12:45:53;;;;;;;4.15;1.40;;;20.80;99.90;;;;;;4988752;28;20530;-61
2023/07/12 12:48:19;;;;;;;6.32;1.60;;;22.80;99.90;;;;;;4980276;28;20105;-61
2023/07/12 12:50:45;;;;;;;5.10;1.27;;;24.00;84.10;;;;;;4975747;28;20492;-61
2023/07/12 12:53:14;;;;;;;7.63;2.08;;;23.70;13.20;;;;;;4962451;28;20034;-61
2023/07/12 12:55:39;;;;;;;5.20;1.60;;;23.80;1.00;;;;;;4985589;28;20073;-61
2023/07/12 12:58:10;;;;;;;6.38;1.77;;;25.10;1.00;;;;;;4989872;28;20082;-61
2023/07/12 13:00:36;;;;;;;6.35;1.45;;;25.10;1.00;;;;;;4987811;28;20053;-62
2023/07/12 13:03:05;;;;;;;5.32;1.67;;;25.70;1.00;;;;;;4988730;28;20034;-61
2023/07/12 13:05:32;;;;;;;5.38;1.30;;;25.90;1.00;;;;;;4980467;28;20049;-60
2023/07/12 13:08:00;;;;;;;5.15;1.88;;;25.80;99.90;;;;;;4984939;28;20035;-60
2023/07/12 13:10:26;;;;;;;6.82;1.73;;;25.70;99.90;;;;;;4974948;28;20034;-61
2023/07/12 13:12:52;;;;;;;4.45;1.20;;;25.60;99.90;;;;;;4987062;28;20518;-61
2023/07/12 13:15:19;;;;;;;4.25;1.20;;;26.00;99.90;;;;;;5002305;28;20496;-61
2023/07/12 13:17:46;;;;;;;5.13;1.40;;;25.10;99.90;;;;;;4988700;28;20054;-60
2023/07/12 13:20:14;;;;;;;5.35;1.50;;;24.50;99.90;;;;;;4974572;28;20137;-61